sensor_id;sensor_type;location;lat;lon;timestamp;pressure;altitude;pressure_sealevel;temperature;humidity
17438;BME280;73152;52.198;5.422;2023-11-19T00:00:33;100575.41;;;20.73;50.74
17438;BME280;73152;52.198;5.422;2023-11-19T00:03:02;100573.34;;;20.75;50.52
17438;BME280;73152;52.198;5.422;2023-11-19T00:05:31;100570.66;;;20.75;50.44
17438;BME280;73152;52.198;5.422;2023-11-19T00:08:00;100580.59;;;20.75;51.05
17438;BME280;73152;52.198;5.422;2023-11-19T00:10:32;100565.03;;;20.70;50.89
17438;BME280;73152;52.198;5.422;2023-11-19T00:13:01;100563.81;;;20.73;50.83
17438;BME280;73152;52.198;5.422;2023-11-19T00:15:31;100561.94;;;20.73;50.99
17438;BME280;73152;52.198;5.422;2023-11-19T00:18:00;100573.34;;;20.75;50.90
17438;BME280;73152;52.198;5.422;2023-11-19T00:20:30;100581.81;;;20.72;50.92
17438;BME280;73152;52.198;5.422;2023-11-19T00:22:59;100581.41;;;20.75;50.76
17438;BME280;73152;52.198;5.422;2023-11-19T00:25:28;100589.50;;;20.75;50.67
17438;BME280;73152;52.198;5.422;2023-11-19T00:28:00;100589.50;;;20.75;50.62
17438;BME280;73152;52.198;5.422;2023-11-19T00:30:28;100563.00;;;20.79;50.57
17438;BME280;73152;52.198;5.422;2023-11-19T00:32:57;100558.66;;;20.78;50.72
17438;BME280;73152;52.198;5.422;2023-11-19T00:35:26;100548.28;;;20.82;50.13
17438;BME280;73152;52.198;5.422;2023-11-19T00:37:57;100537.31;;;20.83;50.12
17438;BME280;73152;52.198;5.422;2023-11-19T00:40:26;100544.78;;;20.81;50.37
17438;BME280;73152;52.198;5.422;2023-11-19T00:42:55;100540.63;;;20.78;50.82
17438;BME280;73152;52.198;5.422;2023-11-19T00:45:26;100535.25;;;20.78;50.37
17438;BME280;73152;52.198;5.422;2023-11-19T00:47:55;100529.84;;;20.78;50.50
17438;BME280;73152;52.198;5.422;2023-11-19T00:50:25;100529.03;;;20.78;50.44
17438;BME280;73152;52.198;5.422;2023-11-19T00:52:55;100537.50;;;20.82;50.05
17438;BME280;73152;52.198;5.422;2023-11-19T00:55:24;100542.88;;;20.82;50.36
17438;BME280;73152;52.198;5.422;2023-11-19T00:57:53;100539.56;;;20.79;50.68
17438;BME280;73152;52.198;5.422;2023-11-19T01:00:22;100544.16;;;20.79;50.41
17438;BME280;73152;52.198;5.422;2023-11-19T01:02:55;100552.03;;;20.81;50.32
17438;BME280;73152;52.198;5.422;2023-11-19T01:05:26;100550.16;;;20.81;50.41
17438;BME280;73152;52.198;5.422;2023-11-19T01:07:54;100553.66;;;20.82;50.52
17438;BME280;73152;52.198;5.422;2023-11-19T01:10:24;100559.06;;;20.82;50.69
17438;BME280;73152;52.198;5.422;2023-11-19T01:12:54;100543.50;;;20.77;50.52
17438;BME280;73152;52.198;5.422;2023-11-19T01:15:24;100538.94;;;20.77;50.78
17438;BME280;73152;52.198;5.422;2023-11-19T01:17:55;100546.84;;;20.79;50.46
17438;BME280;73152;52.198;5.422;2023-11-19T01:20:24;100528.19;;;20.77;50.62
17438;BME280;73152;52.198;5.422;2023-11-19T01:22:53;100519.47;;;20.75;50.42
17438;BME280;73152;52.198;5.422;2023-11-19T01:25:22;100515.78;;;20.76;50.80
17438;BME280;73152;52.198;5.422;2023-11-19T01:27:51;100519.47;;;20.75;50.87
17438;BME280;73152;52.198;5.422;2023-11-19T01:30:20;100516.78;;;20.75;50.59
17438;BME280;73152;52.198;5.422;2023-11-19T01:32:49;100503.31;;;20.75;50.67
17438;BME280;73152;52.198;5.422;2023-11-19T01:35:20;100496.28;;;20.74;50.87
17438;BME280;73152;52.198;5.422;2023-11-19T01:37:51;100512.63;;;20.73;50.95
17438;BME280;73152;52.198;5.422;2023-11-19T01:40:21;100503.09;;;20.70;50.89
17438;BME280;73152;52.198;5.422;2023-11-19T01:42:50;100515.78;;;20.76;50.74
17438;BME280;73152;52.198;5.422;2023-11-19T01:45:28;100516.56;;;20.77;50.54
17438;BME280;73152;52.198;5.422;2023-11-19T01:48:00;100517.84;;;20.74;50.86
17438;BME280;73152;52.198;5.422;2023-11-19T01:50:33;100517.84;;;20.74;50.78
17438;BME280;73152;52.198;5.422;2023-11-19T01:53:02;100519.47;;;20.75;50.67
17438;BME280;73152;52.198;5.422;2023-11-19T01:55:31;100509.34;;;20.77;50.43
17438;BME280;73152;52.198;5.422;2023-11-19T01:58:01;100512.84;;;20.78;50.84
17438;BME280;73152;52.198;5.422;2023-11-19T02:00:31;100517.63;;;20.76;50.54
17438;BME280;73152;52.198;5.422;2023-11-19T02:03:03;100512.84;;;20.71;51.02
17438;BME280;73152;52.198;5.422;2023-11-19T02:05:36;100523.41;;;20.73;50.84
17438;BME280;73152;52.198;5.422;2023-11-19T02:08:05;100521.56;;;20.73;50.93
17438;BME280;73152;52.198;5.422;2023-11-19T02:10:34;100515.53;;;20.71;50.53
17438;BME280;73152;52.198;5.422;2023-11-19T02:13:03;100504.16;;;20.76;50.89
17438;BME280;73152;52.198;5.422;2023-11-19T02:15:34;100497.94;;;20.75;50.51
17438;BME280;73152;52.198;5.422;2023-11-19T02:18:23;100509.94;;;20.73;50.63
17438;BME280;73152;52.198;5.422;2023-11-19T02:20:56;100510.34;;;20.70;50.67
17438;BME280;73152;52.198;5.422;2023-11-19T02:23:28;100518.22;;;20.71;50.60
17438;BME280;73152;52.198;5.422;2023-11-19T02:26:12;100536.03;;;20.72;50.44
17438;BME280;73152;52.198;5.422;2023-11-19T02:28:45;100534.19;;;20.73;50.74
17438;BME280;73152;52.198;5.422;2023-11-19T02:31:14;100521.56;;;20.73;50.72
17438;BME280;73152;52.198;5.422;2023-11-19T02:33:43;100528.59;;;20.74;50.23
17438;BME280;73152;52.198;5.422;2023-11-19T02:36:12;100526.09;;;20.73;50.67
17438;BME280;73152;52.198;5.422;2023-11-19T02:38:40;100538.94;;;20.71;50.56
17438;BME280;73152;52.198;5.422;2023-11-19T02:41:10;100527.75;;;20.67;50.55
17438;BME280;73152;52.198;5.422;2023-11-19T02:43:38;100516.56;;;20.70;50.64
17438;BME280;73152;52.198;5.422;2023-11-19T02:46:10;100520.31;;;20.69;50.48
17438;BME280;73152;52.198;5.422;2023-11-19T02:48:39;100511.16;;;20.70;50.44
17438;BME280;73152;52.198;5.422;2023-11-19T02:51:09;100521.09;;;20.70;50.30
17438;BME280;73152;52.198;5.422;2023-11-19T02:53:38;100523.63;;;20.71;50.30
17438;BME280;73152;52.198;5.422;2023-11-19T02:56:10;100519.88;;;20.72;50.21
17438;BME280;73152;52.198;5.422;2023-11-19T02:58:46;100515.53;;;20.71;50.40
17438;BME280;73152;52.198;5.422;2023-11-19T03:01:22;100529.41;;;20.75;50.08
17438;BME280;73152;52.198;5.422;2023-11-19T03:03:55;100519.88;;;20.72;50.35
17438;BME280;73152;52.198;5.422;2023-11-19T03:06:25;100525.91;;;20.74;50.19
17438;BME280;73152;52.198;5.422;2023-11-19T03:08:55;100520.94;;;20.71;50.26
17438;BME280;73152;52.198;5.422;2023-11-19T03:11:24;100521.75;;;20.72;50.14
17438;BME280;73152;52.198;5.422;2023-11-19T03:13:53;100523.22;;;20.74;50.32
17438;BME280;73152;52.198;5.422;2023-11-19T03:16:24;100518.84;;;20.73;50.06
17438;BME280;73152;52.198;5.422;2023-11-19T03:18:53;100524.47;;;20.72;50.12
17438;BME280;73152;52.198;5.422;2023-11-19T03:21:28;100532.94;;;20.75;50.11
17438;BME280;73152;52.198;5.422;2023-11-19T03:23:57;100524.63;;;20.70;50.07
17438;BME280;73152;52.198;5.422;2023-11-19T03:26:27;100524.63;;;20.70;50.28
17438;BME280;73152;52.198;5.422;2023-11-19T03:28:56;100524.22;;;20.67;50.22
17438;BME280;73152;52.198;5.422;2023-11-19T03:31:28;100533.34;;;20.72;50.01
17438;BME280;73152;52.198;5.422;2023-11-19T03:33:56;100521.75;;;20.72;50.14
17438;BME280;73152;52.198;5.422;2023-11-19T03:36:31;100512.84;;;20.71;49.81
17438;BME280;73152;52.198;5.422;2023-11-19T03:39:01;100504.94;;;20.63;50.05
17438;BME280;73152;52.198;5.422;2023-11-19T03:41:31;100503.31;;;20.69;49.86
17438;BME280;73152;52.198;5.422;2023-11-19T03:44:00;100503.31;;;20.69;49.92
17438;BME280;73152;52.198;5.422;2023-11-19T03:46:32;100493.16;;;20.64;50.18
17438;BME280;73152;52.198;5.422;2023-11-19T03:49:01;100495.63;;;20.66;50.23
17438;BME280;73152;52.198;5.422;2023-11-19T03:51:30;100497.72;;;20.70;49.81
17438;BME280;73152;52.198;5.422;2023-11-19T03:54:00;100501.63;;;20.68;50.10
17438;BME280;73152;52.198;5.422;2023-11-19T03:56:29;100513.69;;;20.72;49.84
17438;BME280;73152;52.198;5.422;2023-11-19T03:58:58;100513.88;;;20.70;49.97
17438;BME280;73152;52.198;5.422;2023-11-19T04:01:27;100519.84;;;20.66;50.02
17438;BME280;73152;52.198;5.422;2023-11-19T04:03:58;100521.09;;;20.63;49.88
17438;BME280;73152;52.198;5.422;2023-11-19T04:06:28;100511.78;;;20.66;49.93
17438;BME280;73152;52.198;5.422;2023-11-19T04:08:57;100522.38;;;20.67;50.11
17438;BME280;73152;52.198;5.422;2023-11-19T04:11:26;100508.25;;;20.65;49.65
17438;BME280;73152;52.198;5.422;2023-11-19T04:13:55;100525.25;;;20.66;49.66
17438;BME280;73152;52.198;5.422;2023-11-19T04:16:26;100526.09;;;20.66;50.01
17438;BME280;73152;52.198;5.422;2023-11-19T04:18:59;100534.78;;;20.62;50.09
17438;BME280;73152;52.198;5.422;2023-11-19T04:21:28;100531.06;;;20.63;49.87
17438;BME280;73152;52.198;5.422;2023-11-19T04:23:57;100535.19;;;20.65;49.96
17438;BME280;73152;52.198;5.422;2023-11-19T04:26:26;100552.78;;;20.68;49.90
17438;BME280;73152;52.198;5.422;2023-11-19T04:28:57;100539.53;;;20.66;49.67
17438;BME280;73152;52.198;5.422;2023-11-19T04:31:29;100542.03;;;20.68;49.56
17438;BME280;73152;52.198;5.422;2023-11-19T04:34:01;100535.63;;;20.69;49.59
17438;BME280;73152;52.198;5.422;2023-11-19T04:36:30;100535.19;;;20.65;49.96
17438;BME280;73152;52.198;5.422;2023-11-19T04:39:00;100535.19;;;20.65;49.79
17438;BME280;73152;52.198;5.422;2023-11-19T04:41:29;100529.78;;;20.65;49.86
17438;BME280;73152;52.198;5.422;2023-11-19T04:43:57;100526.28;;;20.65;49.90
17438;BME280;73152;52.198;5.422;2023-11-19T04:46:26;100538.72;;;20.66;49.84
17438;BME280;73152;52.198;5.422;2023-11-19T04:48:55;100537.88;;;20.65;49.68
17438;BME280;73152;52.198;5.422;2023-11-19T04:51:27;100538.28;;;20.62;49.71
17438;BME280;73152;52.198;5.422;2023-11-19T04:53:56;100531.88;;;20.63;49.49
17438;BME280;73152;52.198;5.422;2023-11-19T04:56:25;100531.88;;;20.63;49.70
17438;BME280;73152;52.198;5.422;2023-11-19T04:58:53;100528.38;;;20.63;49.71
17438;BME280;73152;52.198;5.422;2023-11-19T05:01:22;100533.09;;;20.61;49.58
17438;BME280;73152;52.198;5.422;2023-11-19T05:03:51;100527.09;;;20.59;49.96
17438;BME280;73152;52.198;5.422;2023-11-19T05:06:20;100526.91;;;20.60;49.72
17438;BME280;73152;52.198;5.422;2023-11-19T05:08:51;100537.25;;;20.63;49.80
17438;BME280;73152;52.198;5.422;2023-11-19T05:11:20;100536.44;;;20.63;49.85
17438;BME280;73152;52.198;5.422;2023-11-19T05:13:49;100545.94;;;20.65;49.66
17438;BME280;73152;52.198;5.422;2023-11-19T05:16:18;100537.88;;;20.65;49.43
17438;BME280;73152;52.198;5.422;2023-11-19T05:18:47;100545.31;;;20.63;49.57
17438;BME280;73152;52.198;5.422;2023-11-19T05:21:16;100537.47;;;20.62;49.55
17438;BME280;73152;52.198;5.422;2023-11-19T05:23:46;100545.16;;;20.65;49.78
17438;BME280;73152;52.198;5.422;2023-11-19T05:26:23;100537.25;;;20.70;49.64
17438;BME280;73152;52.198;5.422;2023-11-19T05:28:52;100535.19;;;20.65;49.46
17438;BME280;73152;52.198;5.422;2023-11-19T05:31:21;100530.84;;;20.64;49.51
17438;BME280;73152;52.198;5.422;2023-11-19T05:33:50;100533.53;;;20.64;49.69
17438;BME280;73152;52.198;5.422;2023-11-19T05:36:19;100532.69;;;20.64;49.78
17438;BME280;73152;52.198;5.422;2023-11-19T05:38:48;100540.56;;;20.65;49.57
17438;BME280;73152;52.198;5.422;2023-11-19T05:41:16;100538.91;;;20.64;49.43
17438;BME280;73152;52.198;5.422;2023-11-19T05:43:48;100536.84;;;20.66;49.54
17438;BME280;73152;52.198;5.422;2023-11-19T05:46:17;100535.19;;;20.65;49.36
17438;BME280;73152;52.198;5.422;2023-11-19T05:48:46;100546.38;;;20.62;49.59
17438;BME280;73152;52.198;5.422;2023-11-19T05:51:15;100550.72;;;20.63;49.20
17438;BME280;73152;52.198;5.422;2023-11-19T05:53:44;100550.72;;;20.63;49.31
17438;BME280;73152;52.198;5.422;2023-11-19T05:56:16;100552.59;;;20.63;49.27
17438;BME280;73152;52.198;5.422;2023-11-19T05:58:50;100544.69;;;20.61;49.58
17438;BME280;73152;52.198;5.422;2023-11-19T06:01:18;100544.69;;;20.61;49.65
17438;BME280;73152;52.198;5.422;2023-11-19T06:03:47;100560.00;;;20.61;49.48
17438;BME280;73152;52.198;5.422;2023-11-19T06:06:16;100551.75;;;20.62;49.35
17438;BME280;73152;52.198;5.422;2023-11-19T06:08:45;100556.72;;;20.65;49.59
17438;BME280;73152;52.198;5.422;2023-11-19T06:11:15;100549.69;;;20.64;49.26
17438;BME280;73152;52.198;5.422;2023-11-19T06:13:49;100549.69;;;20.64;49.39
17438;BME280;73152;52.198;5.422;2023-11-19T06:16:18;100536.63;;;20.61;49.16
17438;BME280;73152;52.198;5.422;2023-11-19T06:18:46;100543.06;;;20.60;49.45
17438;BME280;73152;52.198;5.422;2023-11-19T06:21:15;100550.28;;;20.60;49.29
17438;BME280;73152;52.198;5.422;2023-11-19T06:23:44;100541.00;;;20.62;49.34
17438;BME280;73152;52.198;5.422;2023-11-19T06:26:13;100550.09;;;20.61;49.56
17438;BME280;73152;52.198;5.422;2023-11-19T06:28:42;100549.25;;;20.61;49.25
17438;BME280;73152;52.198;5.422;2023-11-19T06:31:15;100555.47;;;20.61;49.20
17438;BME280;73152;52.198;5.422;2023-11-19T06:33:44;100544.53;;;20.63;49.28
17438;BME280;73152;52.198;5.422;2023-11-19T06:36:15;100548.44;;;20.60;49.54
17438;BME280;73152;52.198;5.422;2023-11-19T06:38:44;100546.56;;;20.61;49.16
17438;BME280;73152;52.198;5.422;2023-11-19T06:41:13;100550.09;;;20.61;49.33
17438;BME280;73152;52.198;5.422;2023-11-19T06:43:42;100551.13;;;20.60;49.49
17438;BME280;73152;52.198;5.422;2023-11-19T06:46:18;100565.41;;;20.61;49.22
17438;BME280;73152;52.198;5.422;2023-11-19T06:48:47;100563.75;;;20.60;49.37
17438;BME280;73152;52.198;5.422;2023-11-19T06:51:16;100561.25;;;20.58;49.50
17438;BME280;73152;52.198;5.422;2023-11-19T06:53:45;100560.84;;;20.61;49.29
17438;BME280;73152;52.198;5.422;2023-11-19T06:56:22;100557.53;;;20.59;49.39
17438;BME280;73152;52.198;5.422;2023-11-19T06:58:52;100557.53;;;20.59;49.26
17438;BME280;73152;52.198;5.422;2023-11-19T07:01:23;100562.94;;;20.59;49.14
17438;BME280;73152;52.198;5.422;2023-11-19T07:03:53;100563.94;;;20.58;49.29
17438;BME280;73152;52.198;5.422;2023-11-19T07:06:23;100571.38;;;20.56;49.24
17438;BME280;73152;52.198;5.422;2023-11-19T07:08:52;100574.72;;;20.58;49.18
17438;BME280;73152;52.198;5.422;2023-11-19T07:11:21;100584.47;;;20.59;49.43
17438;BME280;73152;52.198;5.422;2023-11-19T07:13:50;100584.47;;;20.59;49.30
17438;BME280;73152;52.198;5.422;2023-11-19T07:16:20;100582.41;;;20.61;49.10
17438;BME280;73152;52.198;5.422;2023-11-19T07:18:51;100600.22;;;20.62;49.15
17438;BME280;73152;52.198;5.422;2023-11-19T07:21:21;100587.38;;;20.58;49.44
17438;BME280;73152;52.198;5.422;2023-11-19T07:23:50;100594.81;;;20.56;49.35
17438;BME280;73152;52.198;5.422;2023-11-19T07:26:18;100595.44;;;20.58;48.94
17438;BME280;73152;52.198;5.422;2023-11-19T07:28:47;100603.53;;;20.58;49.15
17438;BME280;73152;52.198;5.422;2023-11-19T07:31:17;100596.66;;;20.55;49.01
17438;BME280;73152;52.198;5.422;2023-11-19T07:33:46;100596.91;;;20.60;49.16
17438;BME280;73152;52.198;5.422;2023-11-19T07:36:18;100605.63;;;20.62;48.90
17438;BME280;73152;52.198;5.422;2023-11-19T07:38:47;100607.69;;;20.60;49.10
17438;BME280;73152;52.198;5.422;2023-11-19T07:41:16;100611.00;;;20.62;49.25
17438;BME280;73152;52.198;5.422;2023-11-19T07:43:46;100605.78;;;20.61;49.00
17438;BME280;73152;52.198;5.422;2023-11-19T07:46:16;100610.16;;;20.62;49.24
17438;BME280;73152;52.198;5.422;2023-11-19T07:48:45;100607.88;;;20.65;49.25
17438;BME280;73152;52.198;5.422;2023-11-19T07:51:18;100608.94;;;20.64;48.94
17438;BME280;73152;52.198;5.422;2023-11-19T07:53:47;100609.94;;;20.63;49.08
17438;BME280;73152;52.198;5.422;2023-11-19T07:56:16;100608.94;;;20.64;48.77
17438;BME280;73152;52.198;5.422;2023-11-19T07:58:45;100605.84;;;20.67;49.18
17438;BME280;73152;52.198;5.422;2023-11-19T08:01:16;100604.38;;;20.65;49.11
17438;BME280;73152;52.198;5.422;2023-11-19T08:03:44;100602.31;;;20.67;48.85
17438;BME280;73152;52.198;5.422;2023-11-19T08:06:13;100605.63;;;20.69;48.92
17438;BME280;73152;52.198;5.422;2023-11-19T08:08:45;100600.47;;;20.67;48.94
17438;BME280;73152;52.198;5.422;2023-11-19T08:11:14;100591.97;;;20.70;48.90
17438;BME280;73152;52.198;5.422;2023-11-19T08:13:45;100592.78;;;20.71;48.70
17438;BME280;73152;52.198;5.422;2023-11-19T08:16:14;100609.78;;;20.71;49.02
17438;BME280;73152;52.198;5.422;2023-11-19T08:18:44;100604.63;;;20.76;48.91
17438;BME280;73152;52.198;5.422;2023-11-19T08:21:12;100611.88;;;20.76;48.90
17438;BME280;73152;52.198;5.422;2023-11-19T08:23:44;100595.31;;;20.79;48.88
17438;BME280;73152;52.198;5.422;2023-11-19T08:26:14;100597.38;;;20.77;48.74
17438;BME280;73152;52.198;5.422;2023-11-19T08:28:43;100600.91;;;20.84;48.78
17438;BME280;73152;52.198;5.422;2023-11-19T08:31:13;100601.34;;;20.88;48.50
17438;BME280;73152;52.198;5.422;2023-11-19T08:33:42;100606.13;;;20.86;48.83
17438;BME280;73152;52.198;5.422;2023-11-19T08:36:15;100607.38;;;20.90;48.73
17438;BME280;73152;52.198;5.422;2023-11-19T08:38:47;100607.75;;;20.87;48.45
17438;BME280;73152;52.198;5.422;2023-11-19T08:41:17;100625.00;;;20.92;48.83
17438;BME280;73152;52.198;5.422;2023-11-19T08:43:46;100618.16;;;20.90;48.57
17438;BME280;73152;52.198;5.422;2023-11-19T08:46:16;100618.75;;;20.85;48.47
17438;BME280;73152;52.198;5.422;2023-11-19T08:48:44;100613.16;;;20.87;48.71
17438;BME280;73152;52.198;5.422;2023-11-19T08:51:13;100614.59;;;20.83;48.60
17438;BME280;73152;52.198;5.422;2023-11-19T08:53:42;100621.22;;;20.87;48.48
17438;BME280;73152;52.198;5.422;2023-11-19T08:56:14;100614.00;;;20.87;48.80
17438;BME280;73152;52.198;5.422;2023-11-19T08:58:43;100608.59;;;20.87;48.80
17438;BME280;73152;52.198;5.422;2023-11-19T09:01:11;100618.53;;;20.87;48.69
17438;BME280;73152;52.198;5.422;2023-11-19T09:03:40;100611.50;;;20.86;48.76
17438;BME280;73152;52.198;5.422;2023-11-19T09:06:09;100615.06;;;20.93;48.37
17438;BME280;73152;52.198;5.422;2023-11-19T09:08:38;100617.94;;;20.91;48.38
17438;BME280;73152;52.198;5.422;2023-11-19T09:11:08;100620.63;;;20.91;48.31
17438;BME280;73152;52.198;5.422;2023-11-19T09:13:40;100620.22;;;20.88;48.50
17438;BME280;73152;52.198;5.422;2023-11-19T09:16:12;100609.22;;;20.89;48.68
17438;BME280;73152;52.198;5.422;2023-11-19T09:18:41;100608.38;;;20.89;48.70
17438;BME280;73152;52.198;5.422;2023-11-19T09:21:11;100612.53;;;20.91;48.56
17438;BME280;73152;52.198;5.422;2023-11-19T09:23:40;100615.22;;;20.85;48.95
17438;BME280;73152;52.198;5.422;2023-11-19T09:26:09;100611.66;;;20.77;49.47
17438;BME280;73152;52.198;5.422;2023-11-19T09:28:41;100612.91;;;20.75;49.69
17438;BME280;73152;52.198;5.422;2023-11-19T09:31:16;100615.19;;;20.71;50.11
17438;BME280;73152;52.198;5.422;2023-11-19T09:33:45;100610.41;;;20.73;50.27
17438;BME280;73152;52.198;5.422;2023-11-19T09:36:15;100605.25;;;20.78;50.24
17438;BME280;73152;52.198;5.422;2023-11-19T09:38:45;100619.56;;;20.79;50.21
17438;BME280;73152;52.198;5.422;2023-11-19T09:41:14;100605.25;;;20.78;50.30
17438;BME280;73152;52.198;5.422;2023-11-19T09:43:47;100607.75;;;20.87;50.81
17438;BME280;73152;52.198;5.422;2023-11-19T09:46:17;100603.59;;;20.84;50.50
17438;BME280;73152;52.198;5.422;2023-11-19T09:48:46;100605.50;;;20.84;50.91
17438;BME280;73152;52.198;5.422;2023-11-19T09:51:18;100604.44;;;20.85;50.54
17438;BME280;73152;52.198;5.422;2023-11-19T09:53:47;100599.44;;;20.82;51.02
17438;BME280;73152;52.198;5.422;2023-11-19T09:56:16;100594.50;;;20.85;51.14
17438;BME280;73152;52.198;5.422;2023-11-19T09:58:48;100598.03;;;20.86;51.34
17438;BME280;73152;52.198;5.422;2023-11-19T10:01:17;100607.13;;;20.85;51.15
17438;BME280;73152;52.198;5.422;2023-11-19T10:03:47;100610.22;;;20.82;50.90
17438;BME280;73152;52.198;5.422;2023-11-19T10:06:17;100608.19;;;20.84;51.01
17438;BME280;73152;52.198;5.422;2023-11-19T10:08:46;100604.44;;;20.85;51.26
17438;BME280;73152;52.198;5.422;2023-11-19T10:11:15;100599.69;;;20.87;51.21
17438;BME280;73152;52.198;5.422;2023-11-19T10:13:48;100592.22;;;20.89;51.20
17438;BME280;73152;52.198;5.422;2023-11-19T10:16:18;100585.41;;;20.86;51.13
17438;BME280;73152;52.198;5.422;2023-11-19T10:18:48;100587.06;;;20.87;50.85
17438;BME280;73152;52.198;5.422;2023-11-19T10:21:18;100587.50;;;20.91;50.63
17438;BME280;73152;52.198;5.422;2023-11-19T10:23:52;100587.06;;;20.87;50.75
17438;BME280;73152;52.198;5.422;2023-11-19T10:26:23;100584.56;;;20.86;50.67
17438;BME280;73152;52.198;5.422;2023-11-19T10:28:55;100578.13;;;20.87;50.51
17438;BME280;73152;52.198;5.422;2023-11-19T10:31:24;100574.66;;;20.93;51.29
17438;BME280;73152;52.198;5.422;2023-11-19T10:33:53;100583.34;;;20.95;50.98
17438;BME280;73152;52.198;5.422;2023-11-19T10:36:23;100580.66;;;20.95;50.66
17438;BME280;73152;52.198;5.422;2023-11-19T10:39:06;100581.28;;;20.97;50.51
17438;BME280;73152;52.198;5.422;2023-11-19T10:41:35;100578.19;;;21.00;50.60
17438;BME280;73152;52.198;5.422;2023-11-19T10:44:07;100584.84;;;21.04;50.69
17438;BME280;73152;52.198;5.422;2023-11-19T10:46:40;100580.09;;;21.06;50.50
17438;BME280;73152;52.198;5.422;2023-11-19T10:49:10;100585.09;;;21.09;50.12
17438;BME280;73152;52.198;5.422;2023-11-19T10:51:45;100572.25;;;21.11;50.36
17438;BME280;73152;52.198;5.422;2023-11-19T10:54:18;100578.19;;;21.00;50.94
17438;BME280;73152;52.198;5.422;2023-11-19T10:56:54;100586.66;;;20.90;51.80
17438;BME280;73152;52.198;5.422;2023-11-19T10:59:30;100571.28;;;20.84;52.48
17438;BME280;73152;52.198;5.422;2023-11-19T11:02:03;100572.13;;;20.85;52.36
17438;BME280;73152;52.198;5.422;2023-11-19T11:04:40;100570.91;;;20.87;52.35
17438;BME280;73152;52.198;5.422;2023-11-19T11:07:09;100584.84;;;21.04;51.50
17438;BME280;73152;52.198;5.422;2023-11-19T11:09:40;100584.47;;;21.07;51.45
17438;BME280;73152;52.198;5.422;2023-11-19T11:12:10;100598.34;;;21.17;51.35
17438;BME280;73152;52.198;5.422;2023-11-19T11:14:44;100589.03;;;21.26;51.35
17438;BME280;73152;52.198;5.422;2023-11-19T11:17:17;100574.53;;;21.27;51.08
17438;BME280;73152;52.198;5.422;2023-11-19T11:19:47;100572.88;;;21.26;50.44
17438;BME280;73152;52.198;5.422;2023-11-19T11:22:17;100568.75;;;21.30;50.59
17438;BME280;73152;52.198;5.422;2023-11-19T11:25:13;100567.69;;;21.31;50.71
17438;BME280;73152;52.198;5.422;2023-11-19T11:28:09;100566.47;;;21.33;50.14
17438;BME280;73152;52.198;5.422;2023-11-19T11:31:03;100568.94;;;21.35;50.18
17438;BME280;73152;52.198;5.422;2023-11-19T11:34:04;100572.06;;;21.32;49.95
17438;BME280;73152;52.198;5.422;2023-11-19T11:36:49;100566.06;;;21.30;50.16
17438;BME280;73152;52.198;5.422;2023-11-19T11:39:23;100565.22;;;21.36;49.92
17438;BME280;73152;52.198;5.422;2023-11-19T11:42:32;100565.00;;;21.37;49.99
17438;BME280;73152;52.198;5.422;2023-11-19T11:45:03;100554.84;;;21.33;50.11
17438;BME280;73152;52.198;5.422;2023-11-19T11:48:13;100564.81;;;21.39;49.96
17438;BME280;73152;52.198;5.422;2023-11-19T11:50:56;100559.00;;;21.42;49.94
17438;BME280;73152;52.198;5.422;2023-11-19T11:53:26;100554.03;;;21.39;50.24
17438;BME280;73152;52.198;5.422;2023-11-19T11:55:57;100564.59;;;21.40;49.50
17438;BME280;73152;52.198;5.422;2023-11-19T11:58:36;100556.53;;;21.40;49.84
17438;BME280;73152;52.198;5.422;2023-11-19T12:01:08;100546.56;;;21.41;50.11
17438;BME280;73152;52.198;5.422;2023-11-19T12:03:50;100558.38;;;21.40;49.63
17438;BME280;73152;52.198;5.422;2023-11-19T12:06:21;100559.00;;;21.42;49.70
17438;BME280;73152;52.198;5.422;2023-11-19T12:08:50;100548.66;;;21.39;49.93
17438;BME280;73152;52.198;5.422;2023-11-19T12:11:20;100550.28;;;21.33;49.58
17438;BME280;73152;52.198;5.422;2023-11-19T12:13:56;100542.41;;;21.32;49.89
17438;BME280;73152;52.198;5.422;2023-11-19T12:16:28;100547.38;;;21.28;50.30
17438;BME280;73152;52.198;5.422;2023-11-19T12:19:05;100551.13;;;21.27;50.68
17438;BME280;73152;52.198;5.422;2023-11-19T12:21:35;100546.13;;;21.31;50.55
17438;BME280;73152;52.198;5.422;2023-11-19T12:24:07;100548.84;;;21.31;50.72
17438;BME280;73152;52.198;5.422;2023-11-19T12:26:40;100547.38;;;21.35;50.74
17438;BME280;73152;52.198;5.422;2023-11-19T12:29:08;100541.19;;;21.41;50.61
17438;BME280;73152;52.198;5.422;2023-11-19T12:31:37;100544.91;;;21.40;50.66
17438;BME280;73152;52.198;5.422;2023-11-19T12:34:09;100542.81;;;21.42;50.79
17438;BME280;73152;52.198;5.422;2023-11-19T12:36:42;100546.78;;;21.39;50.35
17438;BME280;73152;52.198;5.422;2023-11-19T12:39:10;100548.66;;;21.39;50.66
17438;BME280;73152;52.198;5.422;2023-11-19T12:41:52;100540.75;;;21.37;50.72
17438;BME280;73152;52.198;5.422;2023-11-19T12:44:22;100551.53;;;21.37;50.66
17438;BME280;73152;52.198;5.422;2023-11-19T12:47:02;100552.78;;;21.48;50.57
17438;BME280;73152;52.198;5.422;2023-11-19T12:49:34;100544.69;;;21.55;50.27
17438;BME280;73152;52.198;5.422;2023-11-19T12:52:12;100542.44;;;21.58;50.73
17438;BME280;73152;52.198;5.422;2023-11-19T12:54:41;100542.00;;;21.55;49.90
17438;BME280;73152;52.198;5.422;2023-11-19T12:57:10;100546.56;;;21.54;49.72
17438;BME280;73152;52.198;5.422;2023-11-19T12:59:39;100536.63;;;21.48;49.53
17438;BME280;73152;52.198;5.422;2023-11-19T13:02:08;100539.72;;;21.45;49.59
17438;BME280;73152;52.198;5.422;2023-11-19T13:04:40;100542.63;;;21.50;49.71
17438;BME280;73152;52.198;5.422;2023-11-19T13:07:09;100542.63;;;21.50;49.59
17438;BME280;73152;52.198;5.422;2023-11-19T13:09:38;100540.78;;;21.51;49.47